Airfield :
LOGIN :

Register | Disclaimer

   EN    FR    IT 

 










Legend :    VFR   Marginal VFR   IFR   Intensive IFR   Very Intensive IFR
Visi :
Ceiling :
>= 8 km
>= 3000ft
5 to 8 km
1000 to 3000 ft
1500m to 5 km
500 to 1000 ft
800 to 1500m
200 to 500 ft
< 800m
< 200 ft
Symbols :   Thunderstorms  Fog  Heavy snow  Heavy precipitations  Wind > 20 kt
SIGMETs :     Misc.  Thunderstorms  Icing  Turbulence  Mountain Waves  Volcanic Ashes







- Airport Elevation : 20 ft
- IATA code : BJA


DAAE - Soummam - Bejaia

CURRENT METAR :
  • 151500Z 18002KT 9999 FEW020 SCT040 19/11 Q1009

EXPIRED METARs :
  • 151400Z 28005KT 9999 FEW020 SCT090 20/09 Q1009
  • 151300Z 29005KT 9999 FEW020 BKN233 19/08 Q1010

TAF TAF DAAE
Valid from the 15 at 12:00 until the 16 at 12:00 UTC


151100Z 1512/1612 24012KT 9999 FEW026 SCT200
TEMPO 1512/1518 26018G28KT
BECMG 1518/1520 6000 -RA FEW023CB BKN030
TEMPO 1600/1606 3000 TSRA SCT026CB
No reported NOTAMs for that airfield.
1 SIGMET reported for the Alger FIR (DAAA) :
 
Embedded thunderstorms
DAAA SIGMET 4 VALID 151500/151800 DAMM
DAAA ALGIERS FIR EMBD TS FCST WI N3202 E00902 - N2843 E00953 - N2900 W00018 - N3224 E00007 - N3242 E00349 - N3202 E00902 TOP FL280 MOV NE 25KT NC=



MET'MAP, your aeronautical weather chart ! - Copyright ORBIFLY December 2007 - Disclaimer

ORBIFLY MET'MAP TEAM :

Programming & Development : Alexandra Zaïnal
Concept & Development : Baudouin d'Aumeries
Co-Development & Prog : Marc-Olivier Méhu
Technical & hardware support : Manuel Goepfert

Contact : metmap@orbifly.com




SOURCES & CREDITS :

   NOAA